Terminal Aerodrome Forecast
Issued by NWS

Home | Current Version | Previous Version | Text Only | Print | Product List | Glossary On
Versions: 1 2 3 4 5 6 7 8 9 10 11 12 13 14 15 16
000
FTUS43 KAPX 301720
TAFAPN
TAF
KAPN 301720Z 3018/3118 34010G16KT P6SM -RA BKN010 OVC060
     FM301900 34010G16KT P6SM -RA SCT020 OVC080
     FM302130 34010G17KT P6SM OVC150
     FM310200 01006KT P6SM BKN220
     FM311200 05012G21KT P6SM BKN250=

USA.gov is the U.S. government's official web portal to all federal, state and local government web resources and services.